Ford City, Pennsylvania
Current Conditions -  °F | °C
As of 11:15 AM on Saturday 25 Oct 2014 (Local Time) from KBTP Reporting Station
Overcast Overcast  
Wind Chill: 55°   Ceiling: 10000
Heat Index: 55°   Visibility: 10mi
Dew Point: 45°   Wind: 14mph
Humidity: 67%   Direction: 230°SW
Pressure: 29.91"   Gusts: 21mph
Location:  40.77°N, 79.53°W
Report Text: KBTP 251515Z AUTO 23012G18KT 10SM FEW026 OVC100 13/07 A2991 RMK AO1
Loading
Personal Weather Stations






























Interactive Weather Map
Tropical Storm Tracking
New forecast layout! Learn more

10-Day Weather Forecast

Advertisements
Track Severe Weather on mobile